createdAt,value
2019-01-20T00:01:46.186Z,36.03
2019-01-20T00:04:14.482Z,33.40
2019-01-20T00:06:42.681Z,35.05
2019-01-20T00:09:10.905Z,34.25
2019-01-20T00:11:39.101Z,39.33
2019-01-20T00:14:07.393Z,34.60
2019-01-20T00:16:35.751Z,39.73
2019-01-20T00:19:04.278Z,35.73
2019-01-20T00:21:32.482Z,32.65
2019-01-20T00:24:00.769Z,36.68
2019-01-20T00:26:28.975Z,37.28
2019-01-20T00:28:57.274Z,36.70
2019-01-20T00:31:25.546Z,39.38
2019-01-20T00:33:53.785Z,39.13
2019-01-20T00:36:22.053Z,34.30
2019-01-20T00:38:50.278Z,31.87
2019-01-20T00:41:24.007Z,38.50
2019-01-20T00:43:48.485Z,33.98
2019-01-20T00:46:16.681Z,39.18
2019-01-20T00:48:44.980Z,34.33
2019-01-20T00:51:13.250Z,34.83
2019-01-20T00:53:41.466Z,32.28
2019-01-20T00:56:09.735Z,33.38
2019-01-20T00:58:38.031Z,39.50
2019-01-20T01:01:06.303Z,34.88
2019-01-20T01:03:34.606Z,35.80
2019-01-20T01:06:02.950Z,33.70
2019-01-20T01:08:31.255Z,35.75
2019-01-20T01:10:59.534Z,32.10
2019-01-20T01:13:27.902Z,31.97
2019-01-20T01:15:56.178Z,33.35
2019-01-20T01:18:24.397Z,31.12
2019-01-20T01:20:52.602Z,34.13
2019-01-20T01:23:20.921Z,35.00
2019-01-20T01:25:49.118Z,36.42
2019-01-20T01:28:17.339Z,35.95
2019-01-20T01:30:45.541Z,35.48
2019-01-20T01:33:13.766Z,32.65
2019-01-20T01:35:41.966Z,34.98
2019-01-20T01:38:10.190Z,31.95
2019-01-20T01:40:38.465Z,32.65
2019-01-20T01:43:06.733Z,30.60
2019-01-20T01:45:34.953Z,32.13
2019-01-20T01:48:03.149Z,31.97
2019-01-20T01:50:31.371Z,32.45
2019-01-20T01:52:59.564Z,31.50
2019-01-20T01:55:27.793Z,36.60
2019-01-20T01:57:56.065Z,32.23
2019-01-20T02:00:24.353Z,34.75
2019-01-20T02:02:52.557Z,34.95
2019-01-20T02:05:20.785Z,32.23
2019-01-20T02:07:49.049Z,32.60
2019-01-20T02:10:18.042Z,38.20
2019-01-20T02:12:46.386Z,37.35
2019-01-20T02:15:15.873Z,32.67
2019-01-20T02:17:44.076Z,35.03
2019-01-20T02:20:13.729Z,31.12
2019-01-20T02:22:41.929Z,33.73
2019-01-20T02:25:10.327Z,33.67
2019-01-20T02:27:38.601Z,35.00
2019-01-20T02:30:14.113Z,35.80
2019-01-20T02:32:42.309Z,30.88
2019-01-20T02:35:10.537Z,32.00
2019-01-20T02:37:38.801Z,28.98
2019-01-20T02:40:08.634Z,28.52
2019-01-20T02:42:36.835Z,36.88
2019-01-20T02:45:06.299Z,32.85
2019-01-20T02:47:34.577Z,28.40
2019-01-20T02:50:02.809Z,33.30
2019-01-20T02:52:31.070Z,35.35
2019-01-20T02:54:59.377Z,34.35
2019-01-20T02:57:27.651Z,29.48
2019-01-20T02:59:55.945Z,32.60
2019-01-20T03:02:24.145Z,30.97
2019-01-20T03:04:52.441Z,30.97
2019-01-20T03:07:20.653Z,34.33
2019-01-20T03:09:48.933Z,29.87
2019-01-20T03:12:17.132Z,31.70
2019-01-20T03:14:45.432Z,29.10
2019-01-20T03:17:13.702Z,35.35
2019-01-20T03:19:41.997Z,32.73
2019-01-20T03:22:10.189Z,32.28
2019-01-20T03:24:38.418Z,35.98
2019-01-20T03:27:06.687Z,28.50
2019-01-20T03:29:34.982Z,33.28
2019-01-20T03:32:03.238Z,30.40
2019-01-20T03:34:31.459Z,30.25
2019-01-20T03:36:59.753Z,30.40
2019-01-20T03:39:28.035Z,32.78
2019-01-20T03:41:56.321Z,29.60
2019-01-20T03:44:24.522Z,31.12
2019-01-20T03:46:52.750Z,28.65
2019-01-20T03:49:21.009Z,34.85
2019-01-20T03:51:49.225Z,28.98
2019-01-20T03:54:17.422Z,30.45
2019-01-20T03:56:45.649Z,31.68
2019-01-20T03:59:13.848Z,32.95
2019-01-20T04:01:42.069Z,32.98
2019-01-20T04:04:10.265Z,32.30
2019-01-20T04:06:38.483Z,32.63
2019-01-20T04:09:07.402Z,33.70
2019-01-20T04:11:35.811Z,31.02
2019-01-20T04:14:04.206Z,31.52
2019-01-20T04:16:32.420Z,32.88
2019-01-20T04:19:00.625Z,28.60
2019-01-20T04:21:28.930Z,28.73
2019-01-20T04:23:57.197Z,32.45
2019-01-20T04:26:25.414Z,32.58
2019-01-20T04:28:53.620Z,29.15
2019-01-20T04:31:21.910Z,33.05
2019-01-20T04:33:50.105Z,34.95
2019-01-20T04:36:18.329Z,37.00
2019-01-20T04:38:46.589Z,30.85
2019-01-20T04:41:14.809Z,32.00
2019-01-20T04:43:43.010Z,30.82
2019-01-20T04:46:11.316Z,33.30
2019-01-20T04:48:39.655Z,32.85
2019-01-20T04:51:08.121Z,37.45
2019-01-20T04:53:36.994Z,32.23
2019-01-20T04:56:05.354Z,34.48
2019-01-20T04:58:33.617Z,30.40
2019-01-20T05:01:01.844Z,35.30
2019-01-20T05:03:30.117Z,35.10
2019-01-20T05:05:58.414Z,37.13
2019-01-20T05:08:26.681Z,32.30
2019-01-20T05:10:54.901Z,34.45
2019-01-20T05:13:23.097Z,33.63
2019-01-20T05:15:51.302Z,29.45
2019-01-20T05:18:19.597Z,31.45
2019-01-20T05:20:47.798Z,33.65
2019-01-20T05:23:16.030Z,31.40
2019-01-20T05:25:44.298Z,37.42
2019-01-20T05:28:12.601Z,28.55
2019-01-20T05:30:40.810Z,28.15
2019-01-20T05:33:09.105Z,32.23
2019-01-20T05:35:37.311Z,32.45
2019-01-20T05:38:05.603Z,37.10
2019-01-20T05:40:33.890Z,37.23
2019-01-20T05:43:02.201Z,36.60
2019-01-20T05:45:30.475Z,37.70
2019-01-20T05:47:58.771Z,37.80
2019-01-20T05:50:26.977Z,43.83
2019-01-20T05:52:55.198Z,46.40
2019-01-20T05:55:23.474Z,42.13
2019-01-20T05:57:51.771Z,43.70
2019-01-20T06:00:21.118Z,37.27
2019-01-20T06:02:49.421Z,44.20
2019-01-20T06:05:17.698Z,38.45
2019-01-20T06:07:45.926Z,35.58
2019-01-20T06:10:14.194Z,41.33
2019-01-20T06:12:42.498Z,42.85
2019-01-20T06:15:15.312Z,40.10
2019-01-20T06:17:43.661Z,38.07
2019-01-20T06:20:11.939Z,40.12
2019-01-20T06:22:40.238Z,41.08
2019-01-20T06:25:08.784Z,45.88
2019-01-20T06:27:37.088Z,40.75
2019-01-20T06:30:06.905Z,39.67
2019-01-20T06:32:35.202Z,39.57
2019-01-20T06:35:03.662Z,37.40
2019-01-20T06:37:31.957Z,38.80
2019-01-20T06:40:00.234Z,36.93
2019-01-20T06:42:28.525Z,36.60
2019-01-20T06:44:56.726Z,37.25
2019-01-20T06:47:25.084Z,40.30
2019-01-20T06:49:53.354Z,38.13
2019-01-20T06:52:21.578Z,36.55
2019-01-20T06:54:49.866Z,38.38
2019-01-20T06:57:18.161Z,39.60
2019-01-20T06:59:46.358Z,37.48
2019-01-20T07:02:14.586Z,39.47
2019-01-20T07:04:42.865Z,39.57
2019-01-20T07:07:11.065Z,35.10
2019-01-20T07:09:39.298Z,34.73
2019-01-20T07:12:07.570Z,44.47
2019-01-20T07:14:35.862Z,48.53
2019-01-20T07:17:04.198Z,38.67
2019-01-20T07:19:32.427Z,43.95
2019-01-20T07:22:00.706Z,42.20
2019-01-20T07:24:29.017Z,33.98
2019-01-20T07:26:57.285Z,34.63
2019-01-20T07:29:25.583Z,38.75
2019-01-20T07:31:53.862Z,38.53
2019-01-20T07:34:22.166Z,35.15
2019-01-20T07:36:50.430Z,35.60
2019-01-20T07:39:18.733Z,37.23
2019-01-20T07:41:46.931Z,34.23
2019-01-20T07:44:15.151Z,38.87
2019-01-20T07:46:43.430Z,33.53
2019-01-20T07:49:11.722Z,40.70
2019-01-20T07:51:39.918Z,35.87
2019-01-20T07:54:08.142Z,36.50
2019-01-20T07:56:36.415Z,39.07
2019-01-20T07:59:04.709Z,37.10
2019-01-20T08:01:32.913Z,39.67
2019-01-20T08:04:01.224Z,40.55
2019-01-20T08:06:29.494Z,33.30
2019-01-20T08:08:57.803Z,37.80
2019-01-20T08:11:26.066Z,38.43
2019-01-20T08:13:54.282Z,38.47
2019-01-20T08:16:22.477Z,32.63
2019-01-20T08:18:50.779Z,39.63
2019-01-20T08:21:19.041Z,37.67
2019-01-20T08:23:47.259Z,38.43
2019-01-20T08:26:15.529Z,37.13
2019-01-20T08:28:43.826Z,41.27
2019-01-20T08:31:12.118Z,37.23
2019-01-20T08:33:40.414Z,39.70
2019-01-20T08:36:08.687Z,36.50
2019-01-20T08:38:36.958Z,40.67
2019-01-20T08:41:05.246Z,32.47
2019-01-20T08:43:33.447Z,30.17
2019-01-20T08:46:05.994Z,33.40
2019-01-20T08:48:34.261Z,36.87
2019-01-20T08:51:02.549Z,37.77
2019-01-20T08:53:30.821Z,32.87
2019-01-20T08:55:59.122Z,32.07
2019-01-20T08:58:27.394Z,34.43
2019-01-20T09:00:55.699Z,37.43
2019-01-20T09:03:23.962Z,34.70
2019-01-20T09:05:52.179Z,29.93
2019-01-20T09:08:20.374Z,38.27
2019-01-20T09:10:48.589Z,31.33
2019-01-20T09:13:16.797Z,39.80
2019-01-20T09:15:45.089Z,35.80
2019-01-20T09:18:13.355Z,32.77
2019-01-20T09:20:41.645Z,40.60
2019-01-20T09:23:09.846Z,31.30
2019-01-20T09:25:38.062Z,34.23
2019-01-20T09:28:06.330Z,36.53
2019-01-20T09:30:34.719Z,34.90
2019-01-20T09:33:03.051Z,38.07
2019-01-20T09:35:31.347Z,42.10
2019-01-20T09:37:59.627Z,37.37
2019-01-20T09:40:27.923Z,40.43
2019-01-20T09:42:56.200Z,37.90
2019-01-20T09:45:29.025Z,34.77
2019-01-20T09:47:57.218Z,34.83
2019-01-20T09:50:25.443Z,36.10
2019-01-20T09:52:53.941Z,35.30
2019-01-20T09:55:22.243Z,37.40
2019-01-20T09:57:50.510Z,37.50
2019-01-20T10:00:20.007Z,39.97
2019-01-20T10:02:49.133Z,38.17
2019-01-20T10:05:17.344Z,40.63
2019-01-20T10:07:45.617Z,32.70
2019-01-20T10:10:15.379Z,33.93
2019-01-20T10:12:43.713Z,37.47
2019-01-20T10:15:13.210Z,37.43
2019-01-20T10:17:41.494Z,37.43
2019-01-20T10:20:11.324Z,39.47
2019-01-20T10:22:39.674Z,39.47
2019-01-20T10:25:14.900Z,40.07
2019-01-20T10:27:37.946Z,39.33
2019-01-20T10:30:07.682Z,39.07
2019-01-20T10:32:35.919Z,39.50
2019-01-20T10:35:05.452Z,40.07
2019-01-20T10:37:34.394Z,37.70
2019-01-20T10:40:02.662Z,41.70
2019-01-20T10:42:30.882Z,41.83
2019-01-20T10:44:59.150Z,38.40
2019-01-20T10:47:27.365Z,34.10
2019-01-20T10:49:55.574Z,39.83
2019-01-20T10:52:24.781Z,37.93
2019-01-20T10:54:53.045Z,35.40
2019-01-20T10:57:21.341Z,40.57
2019-01-20T10:59:49.673Z,39.63
2019-01-20T11:02:17.962Z,41.07
2019-01-20T11:04:46.229Z,40.60
2019-01-20T11:07:14.447Z,42.40
2019-01-20T11:09:42.719Z,40.67
2019-01-20T11:12:11.016Z,38.00
2019-01-20T11:14:39.282Z,35.23
2019-01-20T11:17:07.573Z,42.53
2019-01-20T11:19:36.874Z,44.53
2019-01-20T11:22:05.090Z,39.50
2019-01-20T11:24:33.362Z,43.50
2019-01-20T11:27:01.956Z,36.70
2019-01-20T11:29:30.217Z,40.17
2019-01-20T11:31:58.410Z,38.63
2019-01-20T11:34:26.623Z,39.63
2019-01-20T11:36:54.898Z,39.10
2019-01-20T11:39:23.196Z,38.90
2019-01-20T11:41:51.473Z,44.47
2019-01-20T11:44:19.700Z,36.67
2019-01-20T11:46:47.972Z,39.70
2019-01-20T11:49:16.257Z,36.87
2019-01-20T11:51:44.453Z,40.17
2019-01-20T11:54:12.680Z,36.90
2019-01-20T11:56:40.957Z,39.37
2019-01-20T11:59:09.235Z,39.70
2019-01-20T12:01:37.536Z,41.40
2019-01-20T12:04:05.877Z,37.13
2019-01-20T12:06:34.162Z,37.07
2019-01-20T12:09:02.356Z,37.30
2019-01-20T12:11:30.662Z,37.53
2019-01-20T12:13:58.861Z,39.67
2019-01-20T12:16:27.282Z,40.67
2019-01-20T12:18:55.582Z,42.13
2019-01-20T12:21:23.928Z,41.70
2019-01-20T12:23:52.189Z,46.30
2019-01-20T12:26:20.415Z,43.80
2019-01-20T12:28:48.694Z,45.50
2019-01-20T12:31:17.022Z,42.90
2019-01-20T12:33:45.314Z,41.33
2019-01-20T12:36:13.584Z,40.33
2019-01-20T12:38:41.902Z,38.47
2019-01-20T12:41:10.146Z,44.03
2019-01-20T12:43:38.440Z,42.80
2019-01-20T12:46:06.705Z,42.53
2019-01-20T12:48:34.934Z,37.90
2019-01-20T12:51:03.270Z,40.87
2019-01-20T12:53:31.561Z,42.40
2019-01-20T12:55:59.754Z,38.63
2019-01-20T12:58:28.115Z,42.67
2019-01-20T13:00:56.383Z,41.13
2019-01-20T13:03:24.685Z,41.10
2019-01-20T13:05:52.970Z,40.37
2019-01-20T13:08:21.241Z,39.23
2019-01-20T13:10:49.526Z,39.47
2019-01-20T13:13:17.793Z,44.27
2019-01-20T13:15:46.085Z,35.87
2019-01-20T13:18:14.282Z,37.70
2019-01-20T13:20:42.587Z,39.30
2019-01-20T13:23:10.856Z,42.37
2019-01-20T13:25:39.148Z,41.77
2019-01-20T13:28:07.414Z,38.47
2019-01-20T13:30:35.634Z,42.27
2019-01-20T13:33:03.986Z,38.90
2019-01-20T13:35:32.278Z,42.13
2019-01-20T13:38:01.806Z,43.30
2019-01-20T13:40:31.570Z,47.20
2019-01-20T13:42:59.838Z,41.10
2019-01-20T13:45:28.130Z,39.90
2019-01-20T13:47:56.400Z,65.53
2019-01-20T13:50:24.820Z,44.43
2019-01-20T13:52:53.154Z,42.03
2019-01-20T13:55:21.423Z,43.43
2019-01-20T13:57:49.729Z,39.07
2019-01-20T14:00:19.094Z,37.27
2019-01-20T14:02:47.510Z,43.10
2019-01-20T14:05:15.730Z,36.53
2019-01-20T14:07:44.026Z,37.93
2019-01-20T14:10:13.876Z,43.27
2019-01-20T14:12:42.161Z,38.90
2019-01-20T14:15:11.532Z,37.33
2019-01-20T14:17:39.815Z,38.47
2019-01-20T14:20:12.526Z,41.10
2019-01-20T14:22:40.738Z,37.50
2019-01-20T14:25:16.409Z,38.07
2019-01-20T14:27:44.698Z,38.40
2019-01-20T14:30:19.982Z,38.13
2019-01-20T14:32:48.513Z,34.23
2019-01-20T14:35:16.798Z,41.43
2019-01-20T14:37:45.092Z,36.87
2019-01-20T14:40:14.894Z,36.90
2019-01-20T14:42:43.118Z,40.97
2019-01-20T14:45:12.857Z,37.80
2019-01-20T14:47:41.142Z,38.50
2019-01-20T14:50:16.521Z,37.30
2019-01-20T14:52:44.814Z,36.20
2019-01-20T14:55:13.141Z,33.80
2019-01-20T14:57:41.336Z,35.30
2019-01-20T15:00:11.157Z,32.90
2019-01-20T15:02:39.423Z,31.53
2019-01-20T15:05:07.704Z,32.83
2019-01-20T15:07:35.983Z,29.70
2019-01-20T15:10:08.761Z,38.83
2019-01-20T15:12:36.950Z,33.60
2019-01-20T15:15:08.969Z,29.83
2019-01-20T15:17:36.738Z,30.40
2019-01-20T15:20:06.570Z,33.70
2019-01-20T15:22:34.837Z,37.93
2019-01-20T15:25:03.509Z,34.37
2019-01-20T15:27:31.699Z,29.23
2019-01-20T15:29:59.986Z,32.30
2019-01-20T15:32:28.353Z,30.80
2019-01-20T15:34:56.685Z,34.33
2019-01-20T15:37:24.962Z,33.07
2019-01-20T15:39:53.182Z,34.03
2019-01-20T15:42:21.368Z,30.27
2019-01-20T15:44:49.593Z,35.57
2019-01-20T15:47:17.789Z,34.80
2019-01-20T15:49:46.018Z,59.47
2019-01-20T15:52:14.217Z,41.70
2019-01-20T15:54:42.484Z,40.03
2019-01-20T15:57:10.769Z,37.00
2019-01-20T15:59:38.986Z,37.87
2019-01-20T16:02:07.344Z,40.77
2019-01-20T16:04:35.613Z,40.10
2019-01-20T16:07:03.973Z,39.37
2019-01-20T16:09:32.183Z,36.50
2019-01-20T16:12:00.489Z,36.07
2019-01-20T16:14:28.760Z,44.63
2019-01-20T16:16:57.048Z,35.30
2019-01-20T16:19:25.317Z,36.57
2019-01-20T16:21:53.812Z,42.30
2019-01-20T16:24:22.083Z,36.93
2019-01-20T16:26:50.485Z,36.77
2019-01-20T16:29:18.705Z,33.37
2019-01-20T16:31:46.976Z,37.30
2019-01-20T16:34:15.274Z,37.73
2019-01-20T16:36:43.547Z,31.70
2019-01-20T16:39:11.846Z,39.37
2019-01-20T16:41:40.109Z,36.50
2019-01-20T16:44:08.337Z,35.93
2019-01-20T16:46:36.604Z,47.17
2019-01-20T16:49:04.862Z,36.80
2019-01-20T16:51:33.078Z,39.37
2019-01-20T16:54:01.280Z,32.07
2019-01-20T16:56:29.578Z,37.07
2019-01-20T16:58:57.851Z,37.43
2019-01-20T17:01:26.202Z,34.60
2019-01-20T17:03:54.397Z,42.53
2019-01-20T17:06:22.623Z,35.43
2019-01-20T17:08:50.892Z,39.30
2019-01-20T17:11:19.185Z,41.50
2019-01-20T17:13:47.462Z,34.63
2019-01-20T17:16:15.758Z,37.03
2019-01-20T17:18:44.038Z,41.60
2019-01-20T17:21:12.393Z,38.70
2019-01-20T17:23:41.798Z,34.37
2019-01-20T17:26:10.018Z,36.57
2019-01-20T17:28:38.210Z,38.00
2019-01-20T17:31:06.429Z,46.30
2019-01-20T17:33:34.646Z,39.00
2019-01-20T17:36:02.941Z,38.33
2019-01-20T17:38:31.151Z,34.50
2019-01-20T17:40:59.446Z,33.60
2019-01-20T17:43:27.654Z,38.60
2019-01-20T17:45:55.941Z,40.07
2019-01-20T17:48:24.137Z,39.67
2019-01-20T17:50:52.359Z,39.23
2019-01-20T17:53:20.626Z,42.20
2019-01-20T17:55:48.921Z,36.10
2019-01-20T17:58:18.360Z,49.10
2019-01-20T18:00:51.015Z,46.40
2019-01-20T18:03:19.287Z,49.03
2019-01-20T18:05:47.649Z,39.50
2019-01-20T18:08:15.847Z,42.23
2019-01-20T18:10:44.142Z,52.37
2019-01-20T18:13:12.406Z,62.80
2019-01-20T18:15:40.694Z,57.13
2019-01-20T18:18:08.894Z,70.20
2019-01-20T18:20:37.097Z,49.93
2019-01-20T18:23:05.458Z,49.10
2019-01-20T18:25:33.732Z,40.73
2019-01-20T18:28:02.028Z,45.50
2019-01-20T18:30:30.774Z,41.30
2019-01-20T18:32:59.073Z,41.50
2019-01-20T18:35:27.922Z,53.40
2019-01-20T18:37:56.290Z,59.60
2019-01-20T18:40:25.167Z,48.10
2019-01-20T18:42:53.532Z,38.93
2019-01-20T18:45:23.181Z,39.73
2019-01-20T18:47:51.465Z,44.50
2019-01-20T18:50:20.834Z,44.50
2019-01-20T18:52:49.130Z,41.93
2019-01-20T18:55:17.570Z,43.33
2019-01-20T18:57:45.940Z,47.90
2019-01-20T19:00:15.745Z,50.87
2019-01-20T19:02:44.041Z,49.13
2019-01-20T19:05:13.713Z,46.60
2019-01-20T19:07:42.026Z,41.80
2019-01-20T19:10:11.803Z,38.97
2019-01-20T19:12:40.097Z,49.73
2019-01-20T19:15:14.260Z,65.00
2019-01-20T19:17:46.608Z,58.83
2019-01-20T19:20:18.692Z,48.47
2019-01-20T19:22:47.551Z,65.77
2019-01-20T19:25:15.897Z,48.13
2019-01-20T19:27:44.117Z,55.93
2019-01-20T19:30:13.852Z,42.10
2019-01-20T19:32:42.145Z,42.33
2019-01-20T19:35:10.420Z,54.20
2019-01-20T19:37:38.782Z,48.43
2019-01-20T19:40:08.734Z,47.50
2019-01-20T19:42:36.949Z,46.77
2019-01-20T19:45:06.326Z,47.90
2019-01-20T19:47:34.625Z,43.80
2019-01-20T19:50:02.826Z,46.27
2019-01-20T19:52:31.119Z,44.20
2019-01-20T19:54:59.313Z,40.20
2019-01-20T19:57:27.529Z,45.20
2019-01-20T19:59:55.731Z,49.07
2019-01-20T20:02:24.029Z,44.53
2019-01-20T20:04:52.296Z,41.90
2019-01-20T20:07:20.590Z,52.47
2019-01-20T20:09:48.796Z,44.53
2019-01-20T20:12:20.489Z,46.20
2019-01-20T20:14:48.826Z,51.33
2019-01-20T20:17:17.042Z,44.90
2019-01-20T20:19:45.314Z,48.10
2019-01-20T20:22:13.510Z,51.17
2019-01-20T20:24:41.725Z,48.30
2019-01-20T20:27:09.929Z,44.97
2019-01-20T20:29:38.416Z,51.10
2019-01-20T20:32:06.690Z,49.60
2019-01-20T20:34:34.982Z,48.80
2019-01-20T20:37:03.189Z,45.47
2019-01-20T20:39:32.047Z,45.47
2019-01-20T20:42:00.238Z,48.50
2019-01-20T20:44:28.453Z,48.03
2019-01-20T20:46:56.646Z,43.57
2019-01-20T20:49:24.942Z,43.03
2019-01-20T20:51:53.142Z,41.53
2019-01-20T20:54:21.434Z,42.30
2019-01-20T20:56:49.703Z,49.10
2019-01-20T20:59:18.008Z,43.60
2019-01-20T21:01:46.261Z,45.97
2019-01-20T21:04:14.486Z,46.63
2019-01-20T21:06:42.749Z,42.53
2019-01-20T21:09:11.066Z,41.83
2019-01-20T21:11:39.258Z,42.83
2019-01-20T21:14:07.474Z,46.07
2019-01-20T21:16:37.983Z,45.30
2019-01-20T21:19:05.721Z,51.90
2019-01-20T21:21:33.994Z,49.27
2019-01-20T21:24:02.297Z,50.73
2019-01-20T21:26:30.565Z,46.13
2019-01-20T21:28:58.858Z,44.70
2019-01-20T21:31:27.054Z,46.80
2019-01-20T21:33:55.295Z,43.87
2019-01-20T21:36:23.557Z,50.00
2019-01-20T21:38:51.784Z,46.97
2019-01-20T21:41:19.982Z,44.73
2019-01-20T21:43:48.206Z,44.80
2019-01-20T21:46:16.473Z,42.63
2019-01-20T21:48:46.356Z,48.50
2019-01-20T21:51:14.666Z,48.27
2019-01-20T21:53:42.882Z,45.73
2019-01-20T21:56:11.083Z,38.73
2019-01-20T21:58:39.386Z,43.13
2019-01-20T22:01:07.650Z,45.50
2019-01-20T22:03:35.946Z,47.33
2019-01-20T22:06:04.214Z,47.77
2019-01-20T22:08:32.416Z,46.90
2019-01-20T22:11:00.710Z,49.60
2019-01-20T22:13:28.909Z,41.80
2019-01-20T22:15:57.137Z,38.00
2019-01-20T22:18:25.401Z,42.70
2019-01-20T22:20:53.617Z,43.93
2019-01-20T22:23:23.690Z,46.60
2019-01-20T22:25:51.978Z,46.80
2019-01-20T22:28:20.177Z,44.03
2019-01-20T22:30:48.471Z,46.47
2019-01-20T22:33:16.741Z,45.70
2019-01-20T22:35:45.044Z,46.07
2019-01-20T22:38:13.318Z,50.00
2019-01-20T22:40:41.606Z,39.60
2019-01-20T22:43:09.810Z,39.87
2019-01-20T22:45:38.098Z,44.30
2019-01-20T22:48:06.294Z,44.00
2019-01-20T22:50:34.583Z,44.20
2019-01-20T22:53:02.855Z,44.90
2019-01-20T22:55:31.149Z,41.23
2019-01-20T22:57:59.426Z,43.20
2019-01-20T23:00:39.438Z,39.50
2019-01-20T23:03:07.711Z,41.47
2019-01-20T23:05:36.006Z,49.20
2019-01-20T23:08:04.345Z,41.50
2019-01-20T23:10:32.638Z,38.80
2019-01-20T23:13:00.868Z,43.23
2019-01-20T23:15:29.147Z,48.43
2019-01-20T23:17:57.512Z,44.90
2019-01-20T23:20:25.822Z,44.10
2019-01-20T23:22:54.102Z,44.40
2019-01-20T23:25:22.395Z,44.20
2019-01-20T23:27:50.725Z,41.30
2019-01-20T23:30:19.027Z,41.97
2019-01-20T23:32:47.294Z,47.50
2019-01-20T23:35:15.510Z,39.93
2019-01-20T23:37:43.773Z,43.97
2019-01-20T23:40:15.778Z,37.40
2019-01-20T23:42:43.969Z,41.20
2019-01-20T23:45:12.629Z,41.17
2019-01-20T23:47:40.835Z,38.40
2019-01-20T23:50:10.662Z,42.73
2019-01-20T23:52:38.934Z,39.87
2019-01-20T23:55:08.110Z,41.37
2019-01-20T23:57:36.334Z,44.00
